Time;durP1;ratioP1;P1;durP2;ratioP2;P2;SDS_P1;SDS_P2;PMS_P1;PMS_P2;Temp;Humidity;BMP_temperature;BMP_pressure;BME280_temperature;BME280_humidity;BME280_pressure;Samples;Min_cycle;Max_cycle;Signal;HPM_P1;HPM_P2
2023/10/13 00:01:51;;;;;;;15.20;7.67;;;10.00;99.90;;;;;;4244247;27;20453;-60
2023/10/13 00:03:53;;;;;;;14.53;8.43;;;10.00;99.90;;;;;;4243993;27;20080;-60
2023/10/13 00:06:02;;;;;;;19.17;9.87;;;10.00;99.90;;;;;;4243272;27;20031;-59
2023/10/13 00:08:04;;;;;;;20.20;10.10;;;10.00;99.90;;;;;;4240217;27;20065;-61
2023/10/13 00:10:14;;;;;;;18.40;9.60;;;10.00;99.90;;;;;;4243683;27;20070;-60
2023/10/13 00:12:20;;;;;;;16.53;9.23;;;10.00;99.90;;;;;;4243691;27;20104;-60
2023/10/13 00:14:21;;;;;;;19.07;9.43;;;10.00;99.90;;;;;;4243752;27;20051;-59
2023/10/13 00:16:27;;;;;;;21.03;9.70;;;10.00;99.90;;;;;;4243129;28;20027;-59
2023/10/13 00:18:33;;;;;;;20.73;9.77;;;10.10;99.90;;;;;;4244254;28;20011;-59
2023/10/13 00:20:37;;;;;;;20.77;9.83;;;10.00;99.90;;;;;;4243602;28;20381;-59
2023/10/13 00:22:40;;;;;;;16.10;9.30;;;10.00;99.90;;;;;;4243708;28;20096;-60
2023/10/13 00:24:45;;;;;;;17.57;9.57;;;10.00;99.90;;;;;;4243033;28;20112;-59
2023/10/13 00:26:48;;;;;;;25.27;9.97;;;10.00;99.90;;;;;;4244542;28;20431;-58
2023/10/13 00:28:58;;;;;;;18.07;9.53;;;10.00;99.90;;;;;;4243430;27;20159;-59
2023/10/13 00:31:00;;;;;;;22.40;9.45;;;10.00;99.90;;;;;;4244733;27;20039;-59
2023/10/13 00:33:01;;;;;;;16.33;9.23;;;10.00;99.90;;;;;;4243419;27;20020;-60
2023/10/13 00:35:05;;;;;;;14.93;8.67;;;10.00;99.90;;;;;;4244571;27;20035;-60
2023/10/13 00:37:17;;;;;;;21.70;10.27;;;10.00;99.90;;;;;;4243286;28;20101;-59
2023/10/13 00:39:18;;;;;;;16.70;9.80;;;10.00;99.90;;;;;;4244744;28;20031;-59
2023/10/13 00:41:34;;;;;;;16.77;9.33;;;10.00;99.90;;;;;;4243494;27;20100;-60
2023/10/13 00:43:45;;;;;;;16.47;8.90;;;10.10;99.90;;;;;;4244733;27;20043;-60
2023/10/13 00:48:10;;;;;;;24.45;8.63;;;10.10;99.90;;;;;;4244244;27;20187;-60
2023/10/13 00:50:15;;;;;;;14.50;8.23;;;10.10;99.90;;;;;;4243223;27;20579;-59
2023/10/13 00:52:18;;;;;;;14.57;8.03;;;10.10;99.90;;;;;;4244483;28;20092;-60
2023/10/13 00:54:26;;;;;;;20.67;7.83;;;10.20;99.90;;;;;;4242957;28;20429;-59
2023/10/13 00:56:30;;;;;;;15.87;7.27;;;10.20;99.90;;;;;;4244105;27;20096;-57
2023/10/13 00:58:33;;;;;;;12.47;6.63;;;10.20;99.90;;;;;;4241428;28;20076;-59
2023/10/13 01:00:46;;;;;;;11.63;6.30;;;10.20;99.90;;;;;;4242351;27;20449;-59
2023/10/13 01:02:56;;;;;;;10.90;6.10;;;10.10;99.90;;;;;;4239897;27;20107;-60
2023/10/13 01:04:57;;;;;;;14.38;6.63;;;10.10;99.90;;;;;;4247409;27;20095;-59
2023/10/13 01:06:59;;;;;;;10.37;5.80;;;10.10;99.90;;;;;;4246786;27;20052;-59
2023/10/13 01:09:18;;;;;;;12.20;6.30;;;10.10;99.90;;;;;;4247170;27;20467;-60
2023/10/13 01:11:19;;;;;;;12.73;6.50;;;10.00;99.90;;;;;;4245445;27;20016;-59
2023/10/13 01:13:22;;;;;;;10.93;6.37;;;10.10;99.90;;;;;;4245381;27;20364;-60
2023/10/13 01:15:29;;;;;;;10.87;5.83;;;10.10;99.90;;;;;;4245896;27;20433;-59
2023/10/13 01:17:31;;;;;;;11.90;5.63;;;10.00;99.90;;;;;;4246629;27;20392;-60
2023/10/13 01:19:42;;;;;;;14.97;6.57;;;10.10;99.90;;;;;;4246760;27;20019;-58
2023/10/13 01:21:47;;;;;;;9.03;5.60;;;10.10;99.90;;;;;;4246030;27;20524;-60
2023/10/13 01:23:50;;;;;;;11.03;6.10;;;10.10;99.90;;;;;;4246437;27;20127;-58
2023/10/13 01:25:53;;;;;;;12.23;5.73;;;10.10;99.90;;;;;;4245978;27;20528;-59
2023/10/13 01:27:55;;;;;;;12.70;6.37;;;10.10;99.90;;;;;;4247143;27;20483;-58
2023/10/13 01:30:05;;;;;;;11.60;6.37;;;10.10;99.90;;;;;;4246121;27;20115;-59
2023/10/13 01:32:06;;;;;;;9.68;5.65;;;10.10;99.90;;;;;;4247255;27;20047;-59
2023/10/13 01:34:08;;;;;;;13.27;6.57;;;10.20;99.90;;;;;;4245960;27;20023;-59
2023/10/13 01:36:12;;;;;;;13.30;6.80;;;10.20;99.90;;;;;;4247292;27;20099;-59
2023/10/13 01:38:14;;;;;;;14.83;6.50;;;10.20;99.90;;;;;;4246121;27;20039;-60
2023/10/13 01:40:18;;;;;;;11.13;6.50;;;10.20;99.90;;;;;;4247111;27;20076;-60
2023/10/13 01:42:21;;;;;;;11.23;6.97;;;10.10;99.90;;;;;;4245738;27;20035;-60
2023/10/13 01:44:30;;;;;;;12.70;7.17;;;10.10;99.90;;;;;;4246946;27;20333;-60
2023/10/13 01:46:32;;;;;;;11.63;6.80;;;10.10;99.90;;;;;;4245535;27;20024;-60
2023/10/13 01:48:38;;;;;;;14.17;7.17;;;10.10;99.90;;;;;;4246538;27;20031;-60
2023/10/13 01:50:39;;;;;;;16.20;7.20;;;10.10;99.90;;;;;;4245728;27;20035;-59
2023/10/13 01:52:43;;;;;;;9.63;6.50;;;10.00;99.90;;;;;;4246747;27;20039;-60
2023/10/13 01:54:46;;;;;;;11.33;6.27;;;10.00;99.90;;;;;;4245194;27;20051;-59
2023/10/13 01:56:48;;;;;;;11.13;6.80;;;10.00;99.90;;;;;;4245669;27;20047;-59
2023/10/13 01:58:50;;;;;;;11.27;6.50;;;10.00;99.90;;;;;;4244476;27;20023;-60
2023/10/13 02:00:51;;;;;;;12.90;7.13;;;10.10;99.90;;;;;;4245365;27;20428;-60
2023/10/13 02:02:52;;;;;;;15.07;7.03;;;10.10;99.90;;;;;;4246265;27;20552;-59
2023/10/13 02:04:57;;;;;;;10.33;6.50;;;10.10;99.90;;;;;;4245764;27;20046;-59
2023/10/13 02:06:58;;;;;;;16.63;7.43;;;10.10;99.90;;;;;;4246607;27;20035;-59
2023/10/13 02:09:13;;;;;;;18.47;7.97;;;10.20;99.90;;;;;;4245717;27;20031;-59
2023/10/13 02:11:18;;;;;;;14.93;7.20;;;10.10;99.90;;;;;;4246149;27;20452;-59
2023/10/13 02:13:22;;;;;;;10.57;6.90;;;10.10;99.90;;;;;;4245414;27;20035;-59
2023/10/13 02:15:26;;;;;;;17.03;7.70;;;10.10;99.90;;;;;;4246009;27;20409;-60
2023/10/13 02:17:27;;;;;;;12.23;6.77;;;10.10;99.90;;;;;;4243840;27;20043;-59
2023/10/13 02:19:28;;;;;;;14.77;7.20;;;10.10;99.90;;;;;;4245208;27;20051;-59
2023/10/13 02:21:38;;;;;;;13.97;6.67;;;10.00;99.90;;;;;;4243670;27;20035;-59
2023/10/13 02:23:45;;;;;;;12.23;6.43;;;9.90;99.90;;;;;;4245815;27;20233;-57
2023/10/13 02:25:46;;;;;;;12.10;6.10;;;9.90;99.90;;;;;;4245165;27;20035;-60
2023/10/13 02:27:58;;;;;;;11.03;6.60;;;9.80;99.90;;;;;;4245921;27;20068;-59
2023/10/13 02:29:59;;;;;;;11.10;6.40;;;9.80;99.90;;;;;;4245072;27;20555;-60
2023/10/13 02:32:04;;;;;;;10.37;6.60;;;9.80;99.90;;;;;;4245919;27;20027;-59
2023/10/13 02:34:08;;;;;;;11.53;6.03;;;9.80;99.90;;;;;;4244956;27;20380;-59
2023/10/13 02:36:12;;;;;;;11.43;7.10;;;9.90;99.90;;;;;;4246327;27;20380;-59
2023/10/13 02:38:13;;;;;;;14.07;6.93;;;9.90;99.90;;;;;;4244626;27;20083;-58
2023/10/13 02:40:15;;;;;;;12.27;7.17;;;9.90;99.90;;;;;;4245832;27;20039;-59
2023/10/13 02:42:23;;;;;;;15.80;7.03;;;9.90;99.90;;;;;;4244897;27;20123;-60
2023/10/13 02:44:28;;;;;;;11.70;6.03;;;9.80;99.90;;;;;;4245556;27;20578;-58
2023/10/13 02:46:29;;;;;;;14.97;7.23;;;9.80;99.90;;;;;;4245044;27;20041;-59
2023/10/13 02:48:40;;;;;;;12.33;6.47;;;9.80;99.90;;;;;;4244834;27;20037;-59
2023/10/13 02:50:45;;;;;;;15.57;6.72;;;9.70;99.90;;;;;;4245415;27;20043;-60
2023/10/13 02:52:49;;;;;;;14.37;7.60;;;9.70;99.90;;;;;;4244912;27;20034;-61
2023/10/13 02:54:51;;;;;;;11.07;5.90;;;9.70;99.90;;;;;;4245297;27;20055;-59
2023/10/13 02:57:00;;;;;;;12.60;6.50;;;9.70;99.90;;;;;;4243940;27;20068;-60
2023/10/13 02:59:05;;;;;;;13.52;7.63;;;9.70;99.90;;;;;;4245630;27;20052;-60
2023/10/13 03:01:20;;;;;;;13.97;6.83;;;9.80;99.90;;;;;;4244677;27;20552;-60
2023/10/13 03:03:22;;;;;;;10.27;6.60;;;9.80;99.90;;;;;;4245635;27;20448;-60
2023/10/13 03:05:23;;;;;;;16.23;6.80;;;9.80;99.90;;;;;;4244253;27;20043;-60
2023/10/13 03:07:30;;;;;;;12.03;5.80;;;9.90;99.90;;;;;;4245515;27;20031;-59
2023/10/13 03:09:37;;;;;;;17.23;6.90;;;9.90;99.90;;;;;;4244848;27;20076;-60
2023/10/13 03:11:39;;;;;;;14.23;6.80;;;9.90;99.90;;;;;;4245238;27;20043;-60
2023/10/13 03:13:44;;;;;;;14.13;6.80;;;10.00;99.90;;;;;;4243763;27;20035;-61
2023/10/13 03:15:47;;;;;;;12.17;6.70;;;9.90;99.90;;;;;;4245152;27;20047;-60
2023/10/13 03:17:48;;;;;;;16.77;6.77;;;10.00;99.90;;;;;;4244526;27;20044;-60
2023/10/13 03:19:49;;;;;;;12.33;7.27;;;10.00;99.90;;;;;;4245395;27;20083;-60
2023/10/13 03:22:06;;;;;;;11.70;6.47;;;10.00;99.90;;;;;;4243037;27;20116;-59
2023/10/13 03:24:07;;;;;;;14.00;6.70;;;10.00;99.90;;;;;;4240595;27;20051;-60
2023/10/13 03:26:09;;;;;;;16.43;7.00;;;10.10;99.90;;;;;;4243071;27;20479;-60
2023/10/13 03:28:16;;;;;;;11.93;7.63;;;10.10;99.90;;;;;;4245413;27;20073;-60
2023/10/13 03:30:20;;;;;;;12.60;6.80;;;10.10;99.90;;;;;;4243382;27;20043;-60
2023/10/13 03:32:21;;;;;;;11.73;6.97;;;10.10;99.90;;;;;;4245242;27;20035;-60
2023/10/13 03:34:22;;;;;;;16.97;7.90;;;10.20;99.90;;;;;;4244221;27;20031;-59
2023/10/13 03:38:45;;;;;;;10.68;6.88;;;10.20;99.90;;;;;;4243610;27;20020;-60
2023/10/13 03:41:07;;;;;;;10.97;6.33;;;10.20;99.90;;;;;;4244358;27;20511;-60
2023/10/13 03:43:11;;;;;;;12.67;6.67;;;10.20;99.90;;;;;;4243753;27;20490;-62
2023/10/13 03:45:12;;;;;;;14.30;6.40;;;10.20;99.90;;;;;;4244681;27;20083;-60
2023/10/13 03:47:26;;;;;;;13.47;6.83;;;10.20;99.90;;;;;;4243643;27;20076;-60
2023/10/13 03:49:29;;;;;;;12.13;6.33;;;10.10;99.90;;;;;;4244269;27;20024;-61
2023/10/13 03:51:33;;;;;;;11.00;6.70;;;10.20;99.90;;;;;;4242525;27;20479;-57
2023/10/13 03:53:36;;;;;;;10.93;6.17;;;10.10;99.90;;;;;;4242863;27;20039;-60
2023/10/13 03:55:37;;;;;;;11.30;6.23;;;10.20;99.90;;;;;;4242162;27;20075;-60
2023/10/13 03:57:39;;;;;;;13.17;6.33;;;10.20;99.90;;;;;;4243412;27;20091;-59
2023/10/13 03:59:46;;;;;;;10.60;6.00;;;10.20;99.90;;;;;;4242985;27;20030;-60
2023/10/13 04:02:02;;;;;;;11.97;6.37;;;10.20;99.90;;;;;;4240742;27;20112;-63
2023/10/13 04:04:08;;;;;;;9.07;5.13;;;10.20;99.90;;;;;;4226965;28;20411;-60
2023/10/13 04:06:16;;;;;;;9.00;5.93;;;10.20;99.90;;;;;;4228689;28;20091;-59
2023/10/13 04:15:21;;;;;;;9.23;5.43;;;10.00;99.90;;;;;;4240218;27;20096;-60
2023/10/13 04:17:23;;;;;;;11.90;5.67;;;10.00;99.90;;;;;;4243305;28;20023;-59
2023/10/13 04:19:26;;;;;;;11.57;6.20;;;10.00;99.90;;;;;;4243715;27;20038;-59
2023/10/13 04:21:39;;;;;;;12.83;6.20;;;9.90;99.90;;;;;;4237975;27;20088;-57
2023/10/13 04:24:09;;;;;;;18.47;7.50;;;9.90;99.90;;;;;;4211306;27;20039;-59
2023/10/13 04:26:20;;;;;;;9.93;6.07;;;9.80;99.90;;;;;;4232209;28;20056;-56
2023/10/13 04:28:34;;;;;;;13.93;6.18;;;9.80;99.90;;;;;;4242926;27;20099;-61
2023/10/13 04:30:52;;;;;;;12.80;5.80;;;9.80;99.90;;;;;;4242642;27;20461;-59
2023/10/13 04:33:15;;;;;;;11.60;6.73;;;9.80;99.90;;;;;;4238801;28;20058;-60
2023/10/13 04:37:29;;;;;;;13.07;6.13;;;9.90;99.90;;;;;;4247201;27;20155;-59
2023/10/13 04:39:35;;;;;;;12.00;6.10;;;10.00;99.90;;;;;;4244026;27;20037;-58
2023/10/13 04:44:04;;;;;;;12.97;7.27;;;10.00;99.90;;;;;;4242167;27;20604;-59
2023/10/13 04:46:35;;;;;;;13.70;5.70;;;10.10;99.90;;;;;;4246863;27;20035;-60
2023/10/13 04:50:41;;;;;;;14.90;6.40;;;10.20;99.90;;;;;;4247547;27;20019;-62
2023/10/13 04:53:01;;;;;;;8.97;5.70;;;10.20;99.90;;;;;;4246552;27;20483;-60
2023/10/13 04:55:32;;;;;;;12.27;6.25;;;10.20;99.90;;;;;;4246832;27;20051;-58
2023/10/13 05:05:11;;;;;;;11.97;6.67;;;10.20;99.90;;;;;;4230257;28;20089;-59
2023/10/13 05:44:47;;;;;;;33.60;13.97;;;9.70;99.90;;;;;;4209782;28;20080;-54
2023/10/13 06:28:43;;;;;;;30.23;15.40;;;10.30;99.90;;;;;;4227892;28;20541;-60
2023/10/13 06:30:57;;;;;;;25.40;12.93;;;10.40;99.90;;;;;;4227838;28;20472;-59
2023/10/13 06:32:58;;;;;;;26.73;13.23;;;10.50;99.90;;;;;;4227871;28;20476;-60
2023/10/13 06:35:07;;;;;;;28.13;12.73;;;10.60;99.90;;;;;;4229233;27;20040;-61
2023/10/13 06:39:37;;;;;;;22.65;12.68;;;10.70;99.90;;;;;;4229781;28;20096;-61
2023/10/13 06:41:40;;;;;;;21.25;12.38;;;10.70;99.90;;;;;;4227432;28;20455;-59
2023/10/13 06:43:43;;;;;;;27.60;14.87;;;10.80;99.90;;;;;;4227186;28;20141;-60
2023/10/13 06:45:56;;;;;;;28.33;13.83;;;10.80;99.90;;;;;;4227549;27;20081;-61
2023/10/13 06:47:58;;;;;;;31.73;14.60;;;10.90;99.90;;;;;;4228792;28;20565;-56
2023/10/13 06:50:00;;;;;;;33.63;14.53;;;10.90;99.90;;;;;;4227383;28;20023;-59
2023/10/13 06:52:02;;;;;;;34.57;15.03;;;11.00;99.90;;;;;;4228823;28;20020;-60
2023/10/13 06:54:11;;;;;;;29.37;14.37;;;11.00;99.90;;;;;;4227463;27;20048;-61
2023/10/13 06:56:27;;;;;;;36.97;17.53;;;11.10;99.90;;;;;;4228349;28;20088;-63
2023/10/13 06:58:29;;;;;;;34.77;15.77;;;11.10;99.90;;;;;;4226425;28;20036;-58
2023/10/13 07:00:34;;;;;;;42.70;16.40;;;11.10;99.90;;;;;;4228590;28;20136;-61
2023/10/13 07:02:35;;;;;;;26.87;13.97;;;11.20;99.90;;;;;;4227401;27;20085;-61
2023/10/13 07:04:39;;;;;;;33.17;14.87;;;11.20;99.90;;;;;;4228522;27;20039;-61
2023/10/13 07:06:47;;;;;;;26.00;14.73;;;11.20;99.90;;;;;;4227181;28;20460;-59
2023/10/13 07:08:51;;;;;;;25.10;14.73;;;11.30;99.90;;;;;;4228459;28;20055;-60
2023/10/13 07:11:05;;;;;;;23.97;14.07;;;11.20;99.90;;;;;;4227642;28;20073;-59
2023/10/13 07:13:07;;;;;;;25.17;13.67;;;11.30;99.90;;;;;;4227566;28;20466;-62
2023/10/13 07:17:26;;;;;;;29.20;14.00;;;11.30;99.90;;;;;;4227878;28;20057;-62
2023/10/13 07:19:27;;;;;;;21.33;12.97;;;11.30;99.90;;;;;;4226736;28;20471;-62
2023/10/13 07:21:32;;;;;;;28.67;13.77;;;11.30;99.90;;;;;;4227886;27;20100;-60
2023/10/13 07:23:35;;;;;;;27.00;11.73;;;11.40;99.90;;;;;;4226764;28;20089;-58
2023/10/13 07:25:37;;;;;;;19.87;11.57;;;11.40;99.90;;;;;;4227456;28;20069;-56
2023/10/13 07:27:38;;;;;;;22.33;13.07;;;11.50;99.90;;;;;;4226892;28;20449;-60
2023/10/13 07:29:42;;;;;;;26.10;14.03;;;11.60;99.90;;;;;;4227605;28;20085;-62
2023/10/13 07:31:44;;;;;;;19.20;11.20;;;11.70;99.90;;;;;;4227309;28;20065;-60
2023/10/13 07:33:45;;;;;;;18.70;11.07;;;11.70;99.90;;;;;;4226766;28;20061;-58
2023/10/13 07:35:50;;;;;;;21.43;12.33;;;11.90;99.90;;;;;;4226305;28;20055;-58
2023/10/13 07:37:54;;;;;;;24.10;12.77;;;12.00;99.90;;;;;;4226727;28;20047;-61
2023/10/13 07:39:58;;;;;;;23.10;11.90;;;12.10;99.90;;;;;;4228265;28;20051;-59
2023/10/13 07:42:15;;;;;;;24.90;12.63;;;12.30;99.90;;;;;;4225836;28;20027;-61
2023/10/13 07:44:16;;;;;;;24.43;12.67;;;12.40;99.90;;;;;;4227896;28;20096;-60
2023/10/13 07:46:17;;;;;;;23.33;13.13;;;12.50;99.90;;;;;;4226265;28;20092;-58
2023/10/13 07:48:25;;;;;;;19.70;11.93;;;12.50;99.90;;;;;;4227742;28;20048;-58
2023/10/13 07:50:26;;;;;;;23.43;12.80;;;12.60;99.90;;;;;;4226298;28;20031;-58
2023/10/13 07:52:36;;;;;;;30.97;15.07;;;12.60;99.90;;;;;;4227578;27;20517;-56
2023/10/13 07:54:40;;;;;;;32.45;16.58;;;12.70;99.90;;;;;;4226270;28;20084;-57
2023/10/13 07:56:41;;;;;;;36.77;17.73;;;12.70;99.90;;;;;;4226245;28;20051;-57
2023/10/13 07:59:00;;;;;;;31.77;16.53;;;12.70;99.90;;;;;;4226307;28;20035;-60
2023/10/13 08:01:07;;;;;;;25.57;15.10;;;12.90;99.90;;;;;;4227553;27;20047;-59
2023/10/13 08:05:39;;;;;;;47.13;17.52;;;13.40;99.90;;;;;;4227404;28;20418;-59
2023/10/13 08:07:42;;;;;;;28.23;15.93;;;13.60;99.90;;;;;;4226140;28;20368;-55
2023/10/13 08:09:51;;;;;;;21.37;13.83;;;13.90;99.90;;;;;;4227178;28;20020;-57
2023/10/13 08:11:54;;;;;;;20.27;13.77;;;14.20;99.90;;;;;;4225947;28;20056;-57
2023/10/13 08:13:59;;;;;;;22.30;11.60;;;14.40;99.90;;;;;;4227446;28;20044;-57
2023/10/13 08:16:07;;;;;;;22.73;11.80;;;14.50;99.90;;;;;;4226077;28;20085;-57
2023/10/13 08:18:17;;;;;;;29.17;11.90;;;14.60;99.90;;;;;;4227149;28;20043;-57
2023/10/13 08:20:20;;;;;;;22.23;11.70;;;14.70;99.90;;;;;;4226251;28;20055;-59
2023/10/13 08:24:42;;;;;;;15.25;8.95;;;14.60;99.90;;;;;;4226093;28;20114;-59
2023/10/13 08:31:22;;;;;;;19.77;9.88;;;14.50;99.90;;;;;;4227054;28;20028;-60
2023/10/13 08:33:27;;;;;;;15.10;8.27;;;14.40;99.90;;;;;;4225686;28;20019;-60
2023/10/13 08:37:46;;;;;;;22.58;11.35;;;14.50;99.90;;;;;;4226184;28;20560;-59
2023/10/13 08:42:11;;;;;;;23.17;11.57;;;14.60;99.90;;;;;;4225529;28;20437;-58
2023/10/13 08:44:31;;;;;;;19.38;10.70;;;14.60;99.90;;;;;;4227245;28;20383;-58
2023/10/13 08:47:03;;;;;;;33.28;16.05;;;14.60;99.90;;;;;;4226285;28;20032;-60
2023/10/13 08:49:15;;;;;;;33.67;14.98;;;14.80;99.90;;;;;;4227098;28;20031;-59
2023/10/13 08:51:31;;;;;;;33.92;12.73;;;14.90;99.90;;;;;;4225882;28;20028;-60
2023/10/13 08:55:48;;;;;;;29.70;12.95;;;15.50;99.90;;;;;;4225749;28;20051;-61
2023/10/13 08:57:53;;;;;;;27.75;11.82;;;15.60;99.90;;;;;;4226977;28;20051;-62
2023/10/13 08:59:55;;;;;;;32.05;12.27;;;15.70;99.90;;;;;;4225727;28;20108;-60
2023/10/13 09:02:15;;;;;;;24.38;10.85;;;15.80;99.90;;;;;;4226960;28;20089;-60
2023/10/13 09:06:22;;;;;;;19.83;11.38;;;16.10;99.90;;;;;;4227141;28;20032;-54
2023/10/13 09:08:35;;;;;;;22.80;11.07;;;16.10;99.90;;;;;;4225523;28;20100;-61
2023/10/13 09:11:05;;;;;;;23.58;10.48;;;16.20;99.90;;;;;;4226749;28;20043;-60
2023/10/13 09:13:11;;;;;;;21.42;10.05;;;16.30;99.90;;;;;;4225814;28;20040;-59
2023/10/13 09:19:17;;;;;;;40.60;19.35;;;16.10;99.90;;;;;;4226892;28;20061;-57
2023/10/13 09:23:48;;;;;;;20.08;11.00;;;16.10;99.90;;;;;;4229538;28;20096;-60
2023/10/13 09:26:08;;;;;;;22.92;12.75;;;16.10;99.90;;;;;;4228021;27;20039;-60
2023/10/13 09:28:22;;;;;;;25.05;12.18;;;16.00;99.90;;;;;;4229757;28;20441;-59
2023/10/13 09:30:23;;;;;;;35.03;16.10;;;15.90;99.90;;;;;;4227600;28;20085;-59
2023/10/13 09:32:25;;;;;;;17.98;10.45;;;15.90;99.90;;;;;;4229961;27;20040;-60
2023/10/13 09:34:29;;;;;;;16.00;8.48;;;15.90;99.90;;;;;;4228721;28;20024;-57
2023/10/13 09:36:32;;;;;;;18.00;9.05;;;15.90;99.90;;;;;;4229866;28;20097;-60
2023/10/13 09:38:40;;;;;;;17.52;9.50;;;15.90;99.90;;;;;;4228580;27;20039;-57
2023/10/13 09:40:49;;;;;;;18.85;9.93;;;15.80;99.90;;;;;;4229770;27;20040;-61
2023/10/13 09:42:52;;;;;;;17.23;8.88;;;15.90;99.90;;;;;;4228564;27;20047;-58
2023/10/13 09:44:55;;;;;;;13.23;7.18;;;15.90;99.90;;;;;;4229484;27;20040;-59
2023/10/13 09:47:08;;;;;;;12.88;6.63;;;15.90;99.90;;;;;;4228334;28;20031;-59
2023/10/13 09:49:33;;;;;;;14.85;6.07;;;16.00;99.90;;;;;;4229871;27;20052;-61
2023/10/13 09:51:34;;;;;;;10.95;5.93;;;16.00;99.90;;;;;;4228201;28;20088;-61
2023/10/13 09:53:39;;;;;;;10.70;6.55;;;16.10;99.90;;;;;;4229498;27;20439;-60
2023/10/13 09:55:45;;;;;;;16.33;7.00;;;16.20;99.90;;;;;;4228109;27;20162;-59
2023/10/13 09:57:57;;;;;;;11.68;7.47;;;16.20;99.90;;;;;;4229572;28;20047;-60
2023/10/13 10:02:44;;;;;;;13.07;7.90;;;16.30;99.90;;;;;;4229395;28;20081;-58
2023/10/13 10:04:52;;;;;;;10.23;7.38;;;16.50;99.90;;;;;;4228120;28;20488;-59
2023/10/13 10:06:59;;;;;;;19.67;9.27;;;16.60;99.90;;;;;;4229172;28;20027;-57
2023/10/13 10:09:14;;;;;;;10.73;7.35;;;16.70;99.90;;;;;;4227653;28;20056;-58
2023/10/13 10:11:54;;;;;;;13.90;8.38;;;16.70;99.90;;;;;;4229222;28;20120;-59
2023/10/13 10:14:01;;;;;;;14.27;7.57;;;16.80;99.90;;;;;;4228218;28;20027;-58
2023/10/13 10:16:14;;;;;;;14.90;8.20;;;16.90;99.90;;;;;;4228851;27;20061;-58
2023/10/13 10:18:25;;;;;;;12.38;7.85;;;17.00;99.90;;;;;;4228228;28;20028;-58
2023/10/13 10:20:42;;;;;;;18.55;8.68;;;17.00;99.90;;;;;;4229065;27;20134;-57
2023/10/13 10:22:48;;;;;;;15.30;9.05;;;17.10;99.90;;;;;;4228382;28;20394;-59
2023/10/13 10:24:59;;;;;;;14.32;8.38;;;17.20;99.90;;;;;;4227849;27;20044;-59
2023/10/13 10:27:04;;;;;;;14.75;8.80;;;17.20;99.90;;;;;;4228348;28;20528;-59
2023/10/13 10:29:13;;;;;;;16.05;8.07;;;17.20;99.90;;;;;;4228655;28;20036;-57
2023/10/13 10:31:17;;;;;;;12.82;7.78;;;17.20;99.90;;;;;;4227744;28;20032;-59
2023/10/13 10:33:22;;;;;;;15.10;8.35;;;17.20;99.90;;;;;;4228360;28;20100;-58
2023/10/13 10:35:24;;;;;;;15.73;8.52;;;17.10;99.90;;;;;;4227371;28;20073;-58
2023/10/13 10:37:34;;;;;;;13.23;8.38;;;17.10;99.90;;;;;;4227131;27;20151;-58
2023/10/13 10:39:45;;;;;;;15.05;8.90;;;17.10;99.90;;;;;;4225309;28;20048;-53
2023/10/13 10:42:01;;;;;;;11.50;7.63;;;17.20;99.90;;;;;;4228971;28;20031;-59
2023/10/13 10:44:08;;;;;;;18.92;8.40;;;17.30;99.90;;;;;;4227383;28;21665;-56
2023/10/13 10:46:13;;;;;;;15.18;8.48;;;17.30;99.90;;;;;;4228506;28;20540;-58
2023/10/13 10:48:21;;;;;;;13.18;8.23;;;17.30;99.90;;;;;;4227137;28;20479;-60
2023/10/13 10:50:34;;;;;;;12.60;8.27;;;17.50;99.90;;;;;;4228506;28;20761;-56
2023/10/13 10:52:39;;;;;;;16.15;8.40;;;17.50;99.90;;;;;;4227484;27;20043;-60
2023/10/13 10:54:43;;;;;;;9.68;7.97;;;17.60;99.90;;;;;;4227564;27;20115;-59
2023/10/13 10:56:52;;;;;;;14.30;7.90;;;17.70;99.90;;;;;;4227358;27;20052;-56
2023/10/13 10:58:56;;;;;;;12.80;7.28;;;17.70;99.90;;;;;;4228531;27;20088;-60
2023/10/13 11:01:20;;;;;;;17.05;8.02;;;17.70;99.90;;;;;;4227261;27;20077;-59
2023/10/13 11:03:22;;;;;;;15.98;8.15;;;17.70;99.90;;;;;;4226910;28;20043;-55
2023/10/13 11:05:32;;;;;;;12.90;9.30;;;17.70;99.90;;;;;;4227127;28;20051;-59
2023/10/13 11:07:34;;;;;;;19.27;9.05;;;17.70;99.90;;;;;;4228512;28;20077;-59
2023/10/13 11:09:45;;;;;;;19.60;11.48;;;17.70;99.90;;;;;;4226305;28;20081;-58
2023/10/13 11:11:52;;;;;;;16.58;9.57;;;17.80;99.90;;;;;;4228403;28;20127;-57
2023/10/13 11:14:13;;;;;;;15.27;9.40;;;17.90;99.90;;;;;;4226929;27;20325;-59
2023/10/13 11:16:23;;;;;;;12.40;8.20;;;18.00;99.90;;;;;;4227725;28;20048;-63
2023/10/13 11:18:38;;;;;;;12.45;8.15;;;18.10;99.90;;;;;;4226742;28;20040;-60
2023/10/13 11:20:45;;;;;;;24.67;11.43;;;18.10;99.90;;;;;;4227965;28;20031;-59
2023/10/13 11:22:47;;;;;;;13.50;7.53;;;18.20;99.90;;;;;;4226850;27;20047;-60
2023/10/13 11:24:49;;;;;;;18.58;7.50;;;18.40;99.90;;;;;;4226852;28;20353;-60
2023/10/13 11:26:50;;;;;;;14.27;8.05;;;18.50;99.90;;;;;;4226540;28;20023;-60
2023/10/13 11:28:51;;;;;;;16.75;7.78;;;18.50;99.90;;;;;;4227750;28;20024;-60
2023/10/13 11:30:55;;;;;;;14.05;7.28;;;18.60;99.90;;;;;;4227491;27;20035;-60
2023/10/13 11:33:05;;;;;;;13.68;6.90;;;18.60;99.90;;;;;;4228076;28;20052;-63
2023/10/13 11:35:20;;;;;;;18.10;6.15;;;18.70;99.90;;;;;;4226666;28;20126;-61
2023/10/13 11:37:37;;;;;;;11.25;5.88;;;18.60;99.90;;;;;;4227690;28;20069;-59
2023/10/13 11:39:42;;;;;;;12.32;5.43;;;18.70;99.90;;;;;;4225578;28;20061;-58
2023/10/13 11:41:50;;;;;;;12.02;6.13;;;18.70;99.90;;;;;;4227869;27;20096;-58
2023/10/13 11:43:54;;;;;;;12.80;5.70;;;18.80;99.90;;;;;;4225919;28;20093;-59
2023/10/13 11:45:56;;;;;;;13.32;5.75;;;18.90;99.90;;;;;;4227544;28;20084;-57
2023/10/13 11:48:00;;;;;;;13.52;6.43;;;19.00;99.90;;;;;;4226692;28;20057;-60
2023/10/13 11:50:05;;;;;;;14.80;6.50;;;19.20;99.90;;;;;;4226202;28;20088;-61
2023/10/13 11:52:15;;;;;;;10.75;6.25;;;19.10;99.90;;;;;;4226709;28;20081;-62
2023/10/13 11:54:18;;;;;;;16.27;7.82;;;19.10;99.90;;;;;;4227012;28;20044;-59
2023/10/13 11:56:20;;;;;;;16.42;7.05;;;19.30;99.90;;;;;;4226148;28;20019;-59
2023/10/13 11:58:21;;;;;;;13.50;6.70;;;19.40;99.90;;;;;;4227305;28;20043;-60
2023/10/13 12:00:50;;;;;;;12.82;6.70;;;19.40;99.90;;;;;;4226387;28;20043;-59
2023/10/13 12:05:11;;;;;;;12.07;6.45;;;19.50;99.90;;;;;;4226188;28;20147;-57
2023/10/13 12:09:41;;;;;;;13.32;5.97;;;19.70;99.90;;;;;;4225922;28;20099;-60
2023/10/13 12:11:44;;;;;;;;;;;19.80;99.90;;;;;;4228220;28;20104;-60
2023/10/13 12:13:45;;;;;;;8.70;5.38;;;19.80;99.90;;;;;;4226471;28;19945;-60
2023/10/13 12:15:48;;;;;;;11.55;5.85;;;19.90;99.90;;;;;;4227207;28;20027;-59
2023/10/13 12:17:49;;;;;;;9.02;5.22;;;19.80;99.90;;;;;;4226264;28;20113;-57
2023/10/13 12:19:58;;;;;;;9.85;5.55;;;19.70;99.90;;;;;;4226801;28;20051;-61
2023/10/13 12:22:05;;;;;;;15.82;6.25;;;19.70;99.90;;;;;;4226769;28;20101;-58
2023/10/13 12:24:11;;;;;;;10.63;5.05;;;19.80;99.90;;;;;;4226169;28;20043;-61
2023/10/13 12:26:19;;;;;;;9.95;5.50;;;19.80;99.90;;;;;;4226595;28;20097;-59
2023/10/13 12:28:23;;;;;;;11.85;5.95;;;19.80;99.90;;;;;;4226517;28;20502;-60
2023/10/13 12:30:48;;;;;;;15.48;5.68;;;19.90;99.90;;;;;;4226687;28;20023;-61
2023/10/13 12:33:06;;;;;;;10.68;5.40;;;19.90;99.90;;;;;;4226912;28;20077;-59
2023/10/13 12:37:30;;;;;;;9.63;4.90;;;20.20;99.90;;;;;;4226812;28;20089;-59
2023/10/13 12:49:04;;;;;;;7.73;4.57;;;20.50;99.90;;;;;;4225869;28;20686;-61
2023/10/13 12:51:19;;;;;;;12.20;4.72;;;20.50;99.90;;;;;;4226663;28;20824;-60
2023/10/13 12:53:21;;;;;;;12.13;4.82;;;20.60;99.90;;;;;;4225307;28;20116;-59
2023/10/13 12:55:24;;;;;;;11.98;5.05;;;20.50;99.90;;;;;;4226600;28;20509;-59
2023/10/13 12:57:30;;;;;;;7.60;4.35;;;20.50;99.90;;;;;;4228437;28;20216;-60
2023/10/13 12:59:31;;;;;;;8.32;4.28;;;20.60;99.90;;;;;;4230039;28;20093;-60
2023/10/13 13:01:35;;;;;;;12.35;4.63;;;20.60;99.90;;;;;;4228800;28;20186;-59
2023/10/13 13:03:44;;;;;;;10.93;4.18;;;20.70;99.90;;;;;;4229762;28;20044;-60
2023/10/13 13:05:46;;;;;;;9.82;4.30;;;20.80;99.90;;;;;;4228604;28;20035;-60
2023/10/13 13:07:47;;;;;;;6.88;4.25;;;20.70;99.90;;;;;;4229550;28;20434;-58
2023/10/13 13:09:48;;;;;;;8.43;4.60;;;20.70;99.90;;;;;;4228340;28;20028;-60
2023/10/13 13:11:49;;;;;;;14.75;5.05;;;20.80;99.90;;;;;;4230025;28;20027;-60
2023/10/13 13:13:51;;;;;;;9.63;4.95;;;20.70;99.90;;;;;;4229296;28;20452;-60
2023/10/13 13:15:52;;;;;;;9.55;4.47;;;20.70;99.90;;;;;;4229124;28;20521;-60
2023/10/13 13:17:53;;;;;;;10.73;5.78;;;20.60;99.90;;;;;;4228811;28;20047;-60
2023/10/13 13:19:54;;;;;;;10.85;4.45;;;20.60;99.90;;;;;;4228321;28;20043;-60
2023/10/13 13:21:55;;;;;;;9.25;5.22;;;20.50;99.90;;;;;;4229730;28;20032;-59
2023/10/13 13:23:56;;;;;;;10.00;4.47;;;20.50;99.90;;;;;;4228287;28;20163;-60